createdAt,value
2023-04-04T00:02:12.042Z,1.50
2023-04-04T00:04:38.758Z,1.10
2023-04-04T00:07:05.551Z,1.30
2023-04-04T00:09:32.401Z,1.07
2023-04-04T00:11:59.236Z,1.30
2023-04-04T00:14:26.388Z,0.70
2023-04-04T00:16:53.066Z,0.90
2023-04-04T00:19:19.804Z,1.00
2023-04-04T00:21:46.668Z,0.90
2023-04-04T00:24:13.383Z,1.30
2023-04-04T00:26:40.483Z,1.33
2023-04-04T00:29:07.469Z,1.00
2023-04-04T00:31:34.266Z,1.20
2023-04-04T00:34:01.067Z,1.50
2023-04-04T00:36:27.811Z,1.30
2023-04-04T00:38:55.621Z,1.13
2023-04-04T00:41:22.544Z,1.10
2023-04-04T00:43:49.384Z,0.90
2023-04-04T00:46:18.907Z,1.07
2023-04-04T00:48:46.032Z,0.93
2023-04-04T00:51:12.844Z,1.03
2023-04-04T00:53:39.974Z,1.10
2023-04-04T00:56:09.250Z,1.50
2023-04-04T00:58:36.358Z,1.43
2023-04-04T01:01:03.430Z,0.90
2023-04-04T01:03:30.670Z,1.37
2023-04-04T01:05:57.636Z,1.20
2023-04-04T01:08:27.200Z,1.13
2023-04-04T01:10:54.253Z,1.10
2023-04-04T01:13:22.267Z,1.00
2023-04-04T01:15:51.200Z,0.90
2023-04-04T01:18:22.544Z,1.13
2023-04-04T01:21:07.458Z,1.20
2023-04-04T01:24:03.244Z,1.17
2023-04-04T01:26:41.887Z,1.27
2023-04-04T01:29:08.816Z,1.00
2023-04-04T01:31:40.561Z,1.20
2023-04-04T01:34:18.179Z,1.23
2023-04-04T01:37:14.684Z,1.70
2023-04-04T01:39:59.651Z,1.30
2023-04-04T01:42:27.883Z,1.30
2023-04-04T01:44:57.069Z,1.10
2023-04-04T01:47:29.293Z,1.20
2023-04-04T01:49:56.028Z,1.10
2023-04-04T01:52:23.486Z,1.10
2023-04-04T01:54:50.669Z,1.20
2023-04-04T01:57:17.990Z,1.47
2023-04-04T01:59:44.754Z,1.23
2023-04-04T02:02:11.473Z,1.37
2023-04-04T02:04:38.771Z,0.97
2023-04-04T02:07:06.414Z,1.07
2023-04-04T02:09:33.545Z,1.00
2023-04-04T02:12:01.006Z,1.23
2023-04-04T02:14:27.751Z,1.10
2023-04-04T02:16:54.777Z,1.10
2023-04-04T02:19:21.521Z,1.20
2023-04-04T02:21:48.246Z,1.13
2023-04-04T02:24:14.969Z,1.20
2023-04-04T02:26:41.837Z,1.27
2023-04-04T02:29:08.676Z,1.03
2023-04-04T02:31:35.524Z,1.00
2023-04-04T02:34:02.266Z,1.60
2023-04-04T02:36:29.017Z,1.40
2023-04-04T02:38:57.028Z,1.30
2023-04-04T02:41:26.179Z,1.40
2023-04-04T02:43:52.988Z,1.00
2023-04-04T02:46:21.881Z,1.20
2023-04-04T02:48:54.888Z,1.00
2023-04-04T02:51:22.296Z,0.93
2023-04-04T02:53:49.171Z,1.30
2023-04-04T02:56:22.065Z,1.13
2023-04-04T02:58:48.896Z,1.03
2023-04-04T03:01:15.689Z,0.90
2023-04-04T03:03:42.462Z,1.37
2023-04-04T03:06:09.340Z,0.90
2023-04-04T03:08:36.321Z,1.30
2023-04-04T03:11:03.131Z,1.10
2023-04-04T03:13:30.084Z,1.10
2023-04-04T03:16:06.715Z,1.40
2023-04-04T03:19:02.931Z,2.17
2023-04-04T03:21:29.807Z,1.57
2023-04-04T03:23:58.216Z,1.60
2023-04-04T03:26:25.460Z,1.27
2023-04-04T03:28:52.823Z,1.10
2023-04-04T03:31:21.691Z,1.37
2023-04-04T03:33:49.058Z,1.67
2023-04-04T03:36:16.268Z,1.23
2023-04-04T03:38:43.006Z,1.40
2023-04-04T03:41:10.506Z,1.30
2023-04-04T03:43:37.399Z,1.20
2023-04-04T03:46:05.755Z,1.30
2023-04-04T03:48:33.650Z,0.93
2023-04-04T03:51:03.758Z,1.50
2023-04-04T03:53:30.651Z,1.47
2023-04-04T03:55:57.695Z,1.30
2023-04-04T03:58:24.510Z,1.10
2023-04-04T04:00:51.389Z,1.30
2023-04-04T04:03:18.223Z,1.23
2023-04-04T04:05:46.576Z,1.40
2023-04-04T04:08:13.757Z,1.20
2023-04-04T04:10:40.568Z,1.23
2023-04-04T04:13:07.439Z,1.03
2023-04-04T04:15:34.305Z,1.30
2023-04-04T04:18:04.847Z,1.57
2023-04-04T04:20:31.713Z,1.30
2023-04-04T04:22:58.637Z,1.67
2023-04-04T04:25:25.389Z,1.10
2023-04-04T04:28:02.095Z,1.50
2023-04-04T04:30:28.944Z,1.10
2023-04-04T04:32:56.281Z,1.30
2023-04-04T04:35:28.049Z,1.30
2023-04-04T04:37:56.382Z,1.10
2023-04-04T04:40:23.188Z,1.07
2023-04-04T04:42:56.216Z,1.70
2023-04-04T04:45:24.020Z,1.23
2023-04-04T04:48:02.057Z,1.70
2023-04-04T04:50:30.240Z,1.27
2023-04-04T04:52:57.494Z,1.40
2023-04-04T04:55:25.139Z,1.80
2023-04-04T04:58:03.338Z,1.37
2023-04-04T05:00:31.282Z,1.60
2023-04-04T05:03:00.431Z,1.10
2023-04-04T05:05:50.745Z,1.37
2023-04-04T05:08:17.919Z,1.70
2023-04-04T05:11:00.383Z,1.30
2023-04-04T05:13:30.306Z,1.37
2023-04-04T05:15:58.241Z,1.27
2023-04-04T05:18:26.504Z,1.40
2023-04-04T05:20:56.924Z,1.30
2023-04-04T05:23:27.295Z,1.20
2023-04-04T05:25:54.249Z,1.60
2023-04-04T05:28:23.524Z,1.60
2023-04-04T05:30:52.735Z,1.30
2023-04-04T05:33:23.548Z,1.77
2023-04-04T05:36:01.442Z,1.60
2023-04-04T05:38:31.364Z,1.33
2023-04-04T05:40:58.191Z,1.60
2023-04-04T05:43:25.867Z,1.47
2023-04-04T05:45:59.130Z,1.40
2023-04-04T05:48:27.764Z,1.67
2023-04-04T05:50:54.464Z,1.33
2023-04-04T05:53:33.512Z,1.20
2023-04-04T05:56:01.511Z,1.87
2023-04-04T05:58:31.394Z,1.63
2023-04-04T06:00:59.338Z,1.50
2023-04-04T06:03:26.287Z,1.23
2023-04-04T06:05:54.108Z,1.63
2023-04-04T06:08:21.310Z,1.50
2023-04-04T06:10:47.998Z,1.77
2023-04-04T06:13:14.730Z,1.50
2023-04-04T06:15:45.409Z,1.00
2023-04-04T06:18:12.225Z,1.70
2023-04-04T06:20:39.267Z,1.30
2023-04-04T06:23:06.531Z,1.20
2023-04-04T06:25:37.335Z,1.17
2023-04-04T06:28:04.371Z,1.40
2023-04-04T06:30:37.516Z,1.47
2023-04-04T06:33:05.524Z,1.20
2023-04-04T06:35:35.002Z,1.33
2023-04-04T06:38:02.626Z,1.30
2023-04-04T06:40:29.497Z,1.67
2023-04-04T06:42:58.302Z,1.23
2023-04-04T06:45:33.500Z,1.10
2023-04-04T06:48:00.302Z,1.50
2023-04-04T06:50:31.013Z,1.30
2023-04-04T06:52:58.292Z,1.20
2023-04-04T06:55:26.176Z,1.50
2023-04-04T06:57:52.853Z,1.20
2023-04-04T07:00:19.959Z,1.10
2023-04-04T07:02:47.000Z,2.17
2023-04-04T07:05:14.418Z,1.20
2023-04-04T07:07:41.246Z,1.20
2023-04-04T07:10:08.451Z,1.37
2023-04-04T07:12:35.300Z,1.20
2023-04-04T07:15:02.164Z,1.30
2023-04-04T07:17:28.928Z,1.10
2023-04-04T07:19:55.888Z,1.00
2023-04-04T07:22:22.602Z,1.70
2023-04-04T07:24:49.470Z,1.07
2023-04-04T07:27:16.478Z,1.30
2023-04-04T07:29:43.386Z,1.50
2023-04-04T07:32:10.346Z,1.40
2023-04-04T07:34:37.374Z,1.50
2023-04-04T07:37:04.502Z,1.50
2023-04-04T07:39:31.928Z,1.73
2023-04-04T07:41:58.675Z,1.30
2023-04-04T07:44:25.430Z,2.00
2023-04-04T07:47:02.461Z,1.53
2023-04-04T07:49:33.512Z,1.70
2023-04-04T07:52:00.277Z,1.50
2023-04-04T07:54:27.252Z,1.33
2023-04-04T07:56:53.961Z,1.73
2023-04-04T07:59:20.836Z,1.40
2023-04-04T08:01:47.637Z,1.43
2023-04-04T08:04:14.407Z,1.30
2023-04-04T08:06:41.284Z,1.43
2023-04-04T08:09:08.708Z,1.73
2023-04-04T08:11:36.651Z,1.57
2023-04-04T08:14:03.797Z,1.70
2023-04-04T08:16:31.176Z,1.30
2023-04-04T08:18:59.975Z,1.87
2023-04-04T08:21:27.535Z,1.30
2023-04-04T08:23:54.609Z,1.17
2023-04-04T08:26:21.922Z,1.60
2023-04-04T08:28:49.049Z,2.17
2023-04-04T08:31:16.012Z,1.43
2023-04-04T08:33:47.064Z,1.63
2023-04-04T08:36:16.206Z,1.70
2023-04-04T08:38:43.440Z,1.57
2023-04-04T08:41:11.472Z,1.60
2023-04-04T08:43:41.130Z,1.87
2023-04-04T08:46:10.300Z,1.67
2023-04-04T08:48:41.616Z,1.70
2023-04-04T08:51:12.155Z,1.30
2023-04-04T08:53:39.369Z,1.60
2023-04-04T08:56:06.379Z,1.90
2023-04-04T08:58:33.180Z,1.80
2023-04-04T09:01:00.176Z,1.70
2023-04-04T09:03:29.412Z,1.47
2023-04-04T09:05:56.561Z,1.40
2023-04-04T09:08:26.303Z,1.40
2023-04-04T09:10:53.957Z,1.70
2023-04-04T09:13:21.398Z,1.37
2023-04-04T09:15:54.149Z,2.13
2023-04-04T09:18:21.195Z,1.43
2023-04-04T09:20:48.764Z,1.30
2023-04-04T09:23:20.144Z,1.30
2023-04-04T09:28:19.868Z,1.63
2023-04-04T09:30:51.133Z,1.40
2023-04-04T09:33:19.075Z,2.13
2023-04-04T09:35:52.357Z,1.80
2023-04-04T09:38:20.905Z,1.40
2023-04-04T09:40:48.128Z,1.97
2023-04-04T09:43:15.966Z,1.73
2023-04-04T09:45:46.349Z,1.53
2023-04-04T09:48:13.628Z,1.30
2023-04-04T09:50:47.115Z,1.60
2023-04-04T09:53:18.577Z,1.40
2023-04-04T09:55:53.025Z,1.47
2023-04-04T09:58:25.397Z,1.43
2023-04-04T10:00:57.350Z,2.07
2023-04-04T10:03:24.902Z,1.53
2023-04-04T10:05:57.759Z,1.50
2023-04-04T10:08:27.270Z,1.47
2023-04-04T10:11:11.068Z,1.30
2023-04-04T10:13:41.710Z,1.60
2023-04-04T10:16:09.328Z,1.40
2023-04-04T10:18:37.152Z,1.47
2023-04-04T10:23:38.480Z,1.27
2023-04-04T10:26:05.235Z,1.50
2023-04-04T10:28:32.700Z,2.03
2023-04-04T10:31:09.764Z,1.40
2023-04-04T10:33:43.572Z,1.67
2023-04-04T10:36:12.769Z,1.60
2023-04-04T10:38:45.209Z,1.10
2023-04-04T10:41:13.722Z,2.00
2023-04-04T10:43:45.129Z,1.60
2023-04-04T10:46:19.190Z,1.33
2023-04-04T10:48:47.244Z,1.30
2023-04-04T10:51:15.763Z,1.70
2023-04-04T10:53:43.263Z,1.60
2023-04-04T10:56:11.242Z,1.67
2023-04-04T10:58:41.688Z,1.60
2023-04-04T11:01:08.753Z,1.53
2023-04-04T11:04:14.309Z,1.47
2023-04-04T11:07:08.741Z,2.03
2023-04-04T11:09:55.450Z,1.20
2023-04-04T11:12:31.283Z,1.53
2023-04-04T11:15:04.172Z,1.70
2023-04-04T11:17:49.138Z,1.50
2023-04-04T11:20:21.363Z,1.70
2023-04-04T11:23:12.480Z,1.60
2023-04-04T11:25:41.738Z,1.67
2023-04-04T11:28:14.874Z,1.50
2023-04-04T11:30:50.287Z,1.60
2023-04-04T11:33:27.738Z,1.40
2023-04-04T11:36:00.278Z,1.40
2023-04-04T11:38:29.356Z,1.10
2023-04-04T11:40:57.043Z,1.23
2023-04-04T11:43:25.669Z,1.20
2023-04-04T11:45:53.385Z,1.60
2023-04-04T11:48:20.529Z,1.37
2023-04-04T11:50:49.927Z,1.20
2023-04-04T11:53:17.508Z,1.50
2023-04-04T11:55:47.968Z,1.60
2023-04-04T11:58:17.137Z,1.30
2023-04-04T12:00:44.626Z,1.57
2023-04-04T12:03:12.989Z,1.63
2023-04-04T12:05:43.393Z,2.20
2023-04-04T12:08:11.608Z,1.57
2023-04-04T12:10:40.922Z,1.30
2023-04-04T12:13:09.352Z,1.67
2023-04-04T12:15:37.273Z,1.57
2023-04-04T12:18:08.733Z,1.43
2023-04-04T12:20:40.353Z,1.50
2023-04-04T12:23:07.109Z,1.20
2023-04-04T12:25:34.274Z,1.43
2023-04-04T12:28:04.252Z,1.30
2023-04-04T12:30:31.723Z,1.53
2023-04-04T12:32:58.896Z,2.17
2023-04-04T12:35:26.043Z,1.30
2023-04-04T12:38:10.901Z,1.37
2023-04-04T12:40:38.960Z,1.97
2023-04-04T12:43:07.738Z,5.00
2023-04-04T12:45:39.116Z,1.60
2023-04-04T12:48:11.520Z,1.50
2023-04-04T12:50:56.793Z,1.80
2023-04-04T12:53:28.945Z,1.43
2023-04-04T12:56:02.361Z,1.70
2023-04-04T12:58:29.529Z,1.80
2023-04-04T13:01:00.351Z,1.50
2023-04-04T13:03:28.585Z,1.70
2023-04-04T13:05:55.476Z,1.73
2023-04-04T13:08:22.375Z,1.93
2023-04-04T13:11:00.172Z,1.37
2023-04-04T13:13:41.272Z,2.00
2023-04-04T13:16:12.102Z,2.43
2023-04-04T13:18:43.192Z,2.80
2023-04-04T13:21:12.110Z,2.03
2023-04-04T13:23:40.809Z,1.53
2023-04-04T13:26:09.508Z,1.70
2023-04-04T13:28:36.726Z,1.80
2023-04-04T13:31:04.645Z,1.67
2023-04-04T13:33:31.743Z,2.17
2023-04-04T13:35:59.175Z,1.63
2023-04-04T13:38:27.348Z,1.43
2023-04-04T13:40:54.804Z,1.90
2023-04-04T13:43:21.554Z,1.90
2023-04-04T13:45:48.390Z,1.60
2023-04-04T13:48:16.497Z,1.87
2023-04-04T13:50:50.892Z,1.67
2023-04-04T13:53:18.621Z,1.53
2023-04-04T13:56:01.545Z,1.67
2023-04-04T13:58:32.983Z,1.53
2023-04-04T14:01:03.173Z,1.50
2023-04-04T14:03:30.669Z,1.60
2023-04-04T14:05:57.615Z,1.83
2023-04-04T14:08:25.997Z,1.77
2023-04-04T14:10:52.671Z,1.70
2023-04-04T14:13:20.028Z,1.50
2023-04-04T14:15:47.449Z,1.60
2023-04-04T14:18:15.439Z,1.80
2023-04-04T14:20:42.188Z,1.47
2023-04-04T14:23:09.469Z,1.83
2023-04-04T14:25:36.227Z,2.00
2023-04-04T14:28:02.893Z,1.43
2023-04-04T14:30:29.664Z,1.80
2023-04-04T14:32:56.652Z,1.63
2023-04-04T14:35:23.376Z,1.60
2023-04-04T14:37:50.224Z,1.77
2023-04-04T14:40:17.397Z,1.33
2023-04-04T14:42:44.231Z,1.30
2023-04-04T14:45:12.242Z,1.57
2023-04-04T14:47:38.982Z,1.70
2023-04-04T14:50:06.771Z,1.57
2023-04-04T14:52:33.654Z,1.90
2023-04-04T14:55:00.934Z,1.73
2023-04-04T14:57:28.718Z,1.67
2023-04-04T14:59:55.539Z,1.60
2023-04-04T15:02:22.382Z,1.57
2023-04-04T15:04:49.173Z,1.40
2023-04-04T15:07:16.429Z,1.50
2023-04-04T15:09:43.083Z,1.40
2023-04-04T15:12:09.847Z,2.23
2023-04-04T15:14:36.648Z,2.27
2023-04-04T15:17:03.467Z,1.97
2023-04-04T15:19:30.490Z,1.63
2023-04-04T15:21:57.236Z,1.30
2023-04-04T15:24:23.971Z,1.90
2023-04-04T15:26:50.710Z,1.70
2023-04-04T15:29:17.402Z,1.50
2023-04-04T15:31:44.159Z,1.63
2023-04-04T15:34:10.938Z,2.03
2023-04-04T15:36:37.648Z,1.50
2023-04-04T15:39:04.495Z,1.43
2023-04-04T15:41:31.344Z,1.53
2023-04-04T15:43:58.599Z,1.80
2023-04-04T15:46:25.670Z,1.70
2023-04-04T15:48:52.475Z,2.00
2023-04-04T15:51:21.179Z,1.50
2023-04-04T15:53:48.039Z,1.30
2023-04-04T15:56:14.937Z,1.63
2023-04-04T15:58:41.664Z,1.70
2023-04-04T16:01:08.680Z,1.50
2023-04-04T16:03:35.717Z,1.40
2023-04-04T16:06:02.550Z,1.40
2023-04-04T16:08:29.276Z,1.30
2023-04-04T16:10:57.988Z,1.70
2023-04-04T16:13:24.800Z,1.63
2023-04-04T16:15:51.567Z,1.90
2023-04-04T16:18:18.285Z,1.40
2023-04-04T16:20:45.158Z,1.57
2023-04-04T16:23:11.871Z,1.30
2023-04-04T16:25:38.677Z,1.80
2023-04-04T16:28:05.645Z,1.37
2023-04-04T16:30:32.424Z,1.07
2023-04-04T16:32:59.254Z,1.37
2023-04-04T16:35:27.016Z,1.50
2023-04-04T16:37:54.266Z,1.23
2023-04-04T16:40:21.266Z,1.73
2023-04-04T16:42:48.104Z,1.13
2023-04-04T16:45:14.827Z,1.47
2023-04-04T16:47:41.734Z,1.50
2023-04-04T16:50:08.842Z,1.20
2023-04-04T16:52:35.711Z,1.03
2023-04-04T16:55:02.566Z,1.57
2023-04-04T16:57:29.373Z,1.40
2023-04-04T16:59:56.261Z,1.50
2023-04-04T17:02:23.211Z,1.73
2023-04-04T17:04:51.145Z,1.30
2023-04-04T17:07:19.690Z,1.70
2023-04-04T17:09:48.208Z,1.37
2023-04-04T17:12:15.663Z,1.40
2023-04-04T17:14:42.439Z,1.10
2023-04-04T17:17:09.153Z,1.40
2023-04-04T17:19:37.125Z,1.27
2023-04-04T17:22:04.061Z,1.80
2023-04-04T17:24:31.012Z,2.10
2023-04-04T17:26:58.175Z,5.53
2023-04-04T17:29:26.773Z,2.83
2023-04-04T17:31:56.066Z,2.00
2023-04-04T17:34:24.045Z,2.10
2023-04-04T17:36:52.003Z,3.03
2023-04-04T17:39:19.033Z,1.33
2023-04-04T17:41:49.389Z,4.33
2023-04-04T17:44:17.124Z,2.87
2023-04-04T17:46:45.001Z,6.70
2023-04-04T17:49:12.511Z,2.63
2023-04-04T17:51:39.249Z,2.17
2023-04-04T17:54:06.647Z,2.30
2023-04-04T17:56:33.488Z,2.07
2023-04-04T17:59:00.792Z,2.03
2023-04-04T18:01:29.248Z,3.30
2023-04-04T18:03:58.045Z,4.10
2023-04-04T18:06:24.974Z,2.33
2023-04-04T18:08:51.679Z,2.13
2023-04-04T18:11:18.415Z,3.67
2023-04-04T18:13:45.250Z,5.73
2023-04-04T18:16:12.194Z,9.50
2023-04-04T18:18:40.384Z,5.73
2023-04-04T18:21:08.289Z,5.83
2023-04-04T18:23:35.431Z,5.93
2023-04-04T18:26:02.535Z,11.83
2023-04-04T18:28:29.491Z,5.87
2023-04-04T18:30:56.282Z,6.33
2023-04-04T18:33:24.935Z,2.67
2023-04-04T18:35:53.183Z,2.83
2023-04-04T18:38:20.068Z,1.50
2023-04-04T18:40:46.886Z,1.77
2023-04-04T18:43:13.767Z,1.50
2023-04-04T18:45:41.409Z,1.60
2023-04-04T18:48:08.685Z,1.20
2023-04-04T18:50:35.780Z,1.50
2023-04-04T18:53:02.538Z,3.13
2023-04-04T18:55:29.262Z,3.43
2023-04-04T18:57:57.502Z,2.20
2023-04-04T19:00:24.701Z,1.37
2023-04-04T19:02:51.772Z,2.10
2023-04-04T19:05:24.077Z,1.90
2023-04-04T19:07:53.616Z,2.47
2023-04-04T19:10:20.575Z,1.80
2023-04-04T19:12:47.670Z,2.30
2023-04-04T19:15:14.667Z,1.53
2023-04-04T19:17:41.641Z,1.40
2023-04-04T19:20:09.342Z,1.50
2023-04-04T19:22:36.389Z,1.80
2023-04-04T19:25:03.453Z,1.50
2023-04-04T19:27:30.407Z,1.30
2023-04-04T19:29:57.137Z,1.47
2023-04-04T19:32:27.366Z,1.30
2023-04-04T19:34:54.262Z,1.50
2023-04-04T19:37:21.063Z,1.70
2023-04-04T19:39:48.808Z,1.40
2023-04-04T19:42:16.976Z,1.40
2023-04-04T19:44:43.712Z,1.67
2023-04-04T19:47:10.965Z,1.80
2023-04-04T19:49:39.480Z,2.00
2023-04-04T19:52:07.029Z,2.00
2023-04-04T19:54:40.983Z,1.90
2023-04-04T19:57:18.280Z,1.57
2023-04-04T20:00:09.393Z,2.13
2023-04-04T20:02:51.141Z,2.17
2023-04-04T20:05:32.105Z,2.00
2023-04-04T20:08:00.928Z,1.80
2023-04-04T20:10:39.785Z,2.17
2023-04-04T20:13:07.689Z,1.70
2023-04-04T20:15:47.271Z,1.73
2023-04-04T20:18:24.494Z,2.53
2023-04-04T20:21:15.361Z,2.03
2023-04-04T20:23:48.233Z,1.90
2023-04-04T20:26:34.986Z,1.83
2023-04-04T20:29:28.138Z,1.80
2023-04-04T20:32:00.569Z,1.97
2023-04-04T20:34:47.012Z,1.97
2023-04-04T20:37:26.145Z,2.00
2023-04-04T20:40:01.326Z,2.27
2023-04-04T20:42:28.123Z,2.30
2023-04-04T20:45:12.201Z,2.00
2023-04-04T20:47:57.835Z,2.50
2023-04-04T20:50:26.973Z,1.93
2023-04-04T20:53:01.612Z,2.10
2023-04-04T20:55:30.573Z,5.43
2023-04-04T20:58:28.130Z,2.17
2023-04-04T21:00:58.983Z,1.83
2023-04-04T21:03:26.015Z,2.40
2023-04-04T21:05:56.647Z,2.47
2023-04-04T21:08:24.129Z,2.40
2023-04-04T21:10:53.809Z,2.20
2023-04-04T21:13:27.111Z,1.73
2023-04-04T21:16:01.356Z,1.77
2023-04-04T21:18:30.852Z,2.20
2023-04-04T21:20:57.508Z,2.90
2023-04-04T21:23:27.250Z,2.73
2023-04-04T21:25:56.844Z,2.43
2023-04-04T21:28:43.886Z,2.07
2023-04-04T21:31:18.039Z,2.37
2023-04-04T21:33:46.492Z,1.80
2023-04-04T21:36:28.302Z,1.97
2023-04-04T21:39:05.831Z,1.80
2023-04-04T21:41:34.463Z,1.60
2023-04-04T21:44:03.873Z,2.17
2023-04-04T21:46:35.688Z,3.70
2023-04-04T21:49:03.757Z,4.30
2023-04-04T21:51:30.831Z,3.97
2023-04-04T21:53:57.629Z,3.90
2023-04-04T21:56:27.424Z,2.53
2023-04-04T21:58:55.514Z,2.60
2023-04-04T22:01:22.559Z,3.00
2023-04-04T22:03:49.363Z,3.17
2023-04-04T22:06:16.491Z,3.27
2023-04-04T22:08:43.244Z,3.87
2023-04-04T22:11:13.283Z,3.53
2023-04-04T22:13:46.842Z,3.50
2023-04-04T22:16:18.048Z,3.83
2023-04-04T22:18:51.887Z,3.80
2023-04-04T22:21:26.101Z,3.23
2023-04-04T22:24:01.956Z,3.50
2023-04-04T22:26:31.967Z,3.40
2023-04-04T22:29:00.361Z,2.90
2023-04-04T22:31:28.272Z,3.70
2023-04-04T22:33:55.706Z,3.53
2023-04-04T22:36:24.353Z,3.30
2023-04-04T22:38:56.504Z,3.53
2023-04-04T22:41:27.791Z,4.03
2023-04-04T22:43:55.301Z,4.13
2023-04-04T22:46:22.123Z,3.90
2023-04-04T22:48:49.030Z,3.73
2023-04-04T22:51:16.306Z,4.30
2023-04-04T22:53:44.329Z,4.73
2023-04-04T22:56:11.522Z,4.87
2023-04-04T22:58:38.451Z,4.47
2023-04-04T23:01:06.143Z,4.63
2023-04-04T23:03:33.153Z,4.63
2023-04-04T23:05:59.967Z,5.00
2023-04-04T23:08:26.657Z,4.60
2023-04-04T23:10:53.378Z,5.07
2023-04-04T23:13:20.653Z,3.90
2023-04-04T23:15:47.522Z,3.23
2023-04-04T23:18:14.360Z,2.80
2023-04-04T23:20:41.566Z,2.97
2023-04-04T23:23:08.481Z,2.30
2023-04-04T23:25:35.215Z,2.80
2023-04-04T23:28:01.958Z,2.63
2023-04-04T23:30:29.046Z,2.67
2023-04-04T23:32:55.919Z,2.27
2023-04-04T23:35:22.633Z,2.17
2023-04-04T23:37:49.369Z,2.10
2023-04-04T23:40:16.198Z,2.20
2023-04-04T23:42:43.581Z,2.50
2023-04-04T23:45:11.499Z,2.70
2023-04-04T23:47:38.349Z,2.10
2023-04-04T23:50:05.569Z,2.50
2023-04-04T23:52:32.430Z,2.60
2023-04-04T23:54:59.169Z,2.80
2023-04-04T23:57:25.972Z,2.73
2023-04-04T23:59:52.766Z,2.30
